Estación Meteorológica Peña el Pijo (Robertgarden) [ 09/23/17 05:54:50 CEST ]

Fecha Hora Presion(HPa) Temp (°C) Humedad % Rocio (°C) Viento ( m/s) Direccion Lluvia 1Hora(mm) Lluvia 24H(mm) LLuvia Total(mm)
2017-Apr-13 01:01:46 1012.200 9.8 60 2.4         1357.67
2017-Apr-13 02:01:45 1012.000 8.6 63 1.9         1357.67
2017-Apr-13 03:02:06 1011.800 10.6 60 3.1         1357.67
2017-Apr-13 04:02:26 1011.300 10.7 55 2.0         1357.67
2017-Apr-13 05:02:15 1011.300 8.5 59 0.9         1357.67
2017-Apr-13 06:03:08 1010.900 8.7 60 1.4         1357.67
2017-Apr-13 07:01:48 1011.000 8.9 60 1.6         1357.67
2017-Apr-13 08:01:44 1011.600 9.3 59 1.7         1357.67
2017-Apr-13 09:01:53 1011.900 13.1 58 5.0         1357.67
2017-Apr-13 10:01:48 1011.700 20.5 40 6.4         1357.67
2017-Apr-13 11:01:39 1011.800 24.4 29 5.2         1357.67
2017-Apr-13 12:01:44 1011.800 26.8 24 4.3         1357.67
2017-Apr-13 13:01:52 1011.400 27.1 22 3.4         1357.67
2017-Apr-13 14:01:31 1011.000 25.8 23 2.9 0.6 WSW     1357.67
2017-Apr-13 15:01:39 1010.600 26.9 22 3.3         1357.67
2017-Apr-13 16:01:52 1010.300 25.8 22 2.3         1357.67
2017-Apr-13 17:01:42 1009.700 27.6 21 3.3         1357.67
2017-Apr-13 18:01:42 1009.700 26.4 20 1.7 2.4 NNW     1357.67
2017-Apr-13 19:01:35 1009.600 25.0 21 1.1         1357.67
2017-Apr-13 20:01:50 1009.600 21.6 24 -0.1         1357.67
2017-Apr-13 21:01:52 1010.500 17.3 32 0.4         1357.67
2017-Apr-13 22:01:36 1011.200 13.8 41 0.7         1357.67
2017-Apr-13 23:01:57 1011.700 12.4 47 1.3         1357.67

Temperatura Máxima:27°    Temperatura Mínima:
Presión Máxima:1012.200 Hpa    Presión Mínima:1009.600 Hpa


Volver